Time;durP1;ratioP1;P1;durP2;ratioP2;P2;SDS_P1;SDS_P2;PMS_P1;PMS_P2;Temp;Humidity;BMP_temperature;BMP_pressure;BME280_temperature;BME280_humidity;BME280_pressure;Samples;Min_cycle;Max_cycle;Signal;HPM_P1;HPM_P2
2023/05/06 00:00:13;;;;;;;7.80;6.77;;;11.10;68.10;;;;;;6236595;28;20395;-84
2023/05/06 00:03:16;;;;;;;7.93;7.13;;;11.00;68.20;;;;;;6225553;28;20316;-81
2023/05/06 00:06:20;;;;;;;7.73;7.13;;;11.00;68.40;;;;;;6234146;28;20241;-79
2023/05/06 00:09:24;;;;;;;9.90;7.13;;;11.00;68.70;;;;;;6236700;28;20226;-81
2023/05/06 00:12:28;;;;;;;7.60;7.00;;;10.90;68.80;;;;;;6233591;28;20252;-82
2023/05/06 00:15:31;;;;;;;8.47;7.23;;;10.80;68.80;;;;;;6241726;28;20237;-82
2023/05/06 00:18:34;;;;;;;8.43;6.93;;;10.80;69.30;;;;;;6239976;28;20236;-83
2023/05/06 00:21:37;;;;;;;7.83;6.93;;;10.70;69.20;;;;;;6234290;28;20231;-82
2023/05/06 00:24:42;;;;;;;8.43;6.97;;;10.70;69.60;;;;;;6236027;28;20235;-80
2023/05/06 00:27:45;;;;;;;8.23;7.60;;;10.60;70.40;;;;;;6249335;28;20245;-82
2023/05/06 00:30:48;;;;;;;8.10;7.40;;;10.60;70.30;;;;;;6233030;28;20803;-85
2023/05/06 00:33:51;;;;;;;7.70;7.17;;;10.50;70.60;;;;;;6247019;28;20234;-83
2023/05/06 00:36:54;;;;;;;8.13;7.30;;;10.50;70.80;;;;;;6226877;28;20801;-81
2023/05/06 00:39:59;;;;;;;8.07;7.47;;;10.50;71.20;;;;;;6232994;28;20239;-83
2023/05/06 00:43:02;;;;;;;8.97;8.07;;;10.40;72.10;;;;;;6223257;28;20245;-82
2023/05/06 00:46:06;;;;;;;8.67;8.00;;;10.50;71.70;;;;;;6232492;28;20760;-81
2023/05/06 00:49:12;;;;;;;7.97;7.37;;;10.40;72.20;;;;;;6235495;28;20234;-82
2023/05/06 00:52:15;;;;;;;8.50;7.67;;;10.40;71.90;;;;;;6221516;28;20245;-85
2023/05/06 00:55:21;;;;;;;11.37;7.73;;;10.30;72.20;;;;;;6235088;28;20702;-82
2023/05/06 00:58:24;;;;;;;8.77;7.87;;;10.20;72.90;;;;;;6249646;28;20230;-81
2023/05/06 01:01:27;;;;;;;9.20;8.40;;;10.20;73.10;;;;;;6232659;28;20297;-80
2023/05/06 01:04:30;;;;;;;9.10;8.30;;;10.20;72.70;;;;;;6242630;28;20250;-84
2023/05/06 01:07:40;;;;;;;9.27;8.17;;;10.10;73.50;;;;;;6240612;28;20631;-80
2023/05/06 01:10:53;;;;;;;8.83;8.00;;;10.00;74.20;;;;;;6235320;28;20242;-82
2023/05/06 01:14:02;;;;;;;9.17;8.17;;;10.00;74.20;;;;;;6249842;28;20361;-82
2023/05/06 01:17:10;;;;;;;10.33;9.23;;;10.00;74.30;;;;;;6232980;28;20695;-82
2023/05/06 01:20:14;;;;;;;11.87;8.40;;;9.80;75.10;;;;;;6244277;28;20239;-84
2023/05/06 01:23:19;;;;;;;9.33;8.50;;;9.90;75.00;;;;;;6254592;28;20241;-78
2023/05/06 01:26:22;;;;;;;9.57;8.67;;;9.80;75.30;;;;;;6254460;28;20344;-78
2023/05/06 01:29:26;;;;;;;10.93;8.90;;;9.80;75.40;;;;;;6268500;28;20229;-79
2023/05/06 01:32:38;;;;;;;11.80;9.43;;;9.70;75.40;;;;;;6265202;28;20282;-79
2023/05/06 01:35:50;;;;;;;9.87;8.87;;;9.60;75.50;;;;;;6265494;28;20240;-80
2023/05/06 01:39:01;;;;;;;9.27;8.37;;;9.60;75.50;;;;;;6278381;28;20238;-80
2023/05/06 01:42:05;;;;;;;9.30;8.43;;;9.60;75.40;;;;;;6248715;28;20247;-79
2023/05/06 01:45:10;;;;;;;9.53;8.43;;;9.50;75.40;;;;;;6247727;28;20223;-77
2023/05/06 01:48:14;;;;;;;10.03;8.77;;;9.50;75.40;;;;;;6263544;28;20249;-79
2023/05/06 01:51:17;;;;;;;11.53;9.23;;;9.40;75.40;;;;;;6268536;28;20230;-82
2023/05/06 01:54:21;;;;;;;9.10;8.33;;;9.40;75.90;;;;;;6233442;28;20243;-82
2023/05/06 01:57:24;;;;;;;9.97;9.07;;;9.40;75.50;;;;;;6232312;28;20250;-80
2023/05/06 02:00:27;;;;;;;9.90;8.90;;;9.40;75.20;;;;;;6247306;28;20245;-81
2023/05/06 02:03:31;;;;;;;9.00;8.27;;;9.30;75.00;;;;;;6236219;28;20324;-82
2023/05/06 02:06:34;;;;;;;9.13;8.43;;;9.20;75.00;;;;;;6234482;28;20234;-81
2023/05/06 02:09:38;;;;;;;9.17;8.23;;;9.20;75.30;;;;;;6238729;28;20234;-82
2023/05/06 02:12:41;;;;;;;9.17;8.27;;;9.20;75.40;;;;;;6219734;28;20238;-82
2023/05/06 02:15:45;;;;;;;9.67;8.73;;;9.20;75.50;;;;;;6266061;28;20938;-82
2023/05/06 02:18:48;;;;;;;10.87;9.77;;;9.10;75.70;;;;;;6244583;28;20304;-84
2023/05/06 02:21:51;;;;;;;10.30;8.90;;;9.10;75.90;;;;;;6241382;28;20238;-82
2023/05/06 02:24:57;;;;;;;9.00;8.10;;;9.00;75.80;;;;;;6221643;28;20246;-83
2023/05/06 02:28:00;;;;;;;10.50;8.87;;;9.00;75.70;;;;;;6226728;28;20236;-82
2023/05/06 02:31:03;;;;;;;11.37;8.83;;;9.00;75.60;;;;;;6234191;28;20246;-81
2023/05/06 02:34:07;;;;;;;9.50;8.30;;;8.90;75.40;;;;;;6253846;28;20243;-79
2023/05/06 02:37:10;;;;;;;14.63;9.60;;;8.80;75.70;;;;;;6261535;28;20231;-79
2023/05/06 02:40:14;;;;;;;9.47;8.67;;;8.80;75.90;;;;;;6274415;28;20223;-78
2023/05/06 02:43:17;;;;;;;9.10;8.40;;;8.70;75.90;;;;;;6279676;28;20233;-78
2023/05/06 02:46:20;;;;;;;12.17;9.07;;;8.70;75.80;;;;;;6274090;28;20219;-78
2023/05/06 02:49:23;;;;;;;9.37;8.47;;;8.70;76.10;;;;;;6260101;28;20235;-77
2023/05/06 02:52:26;;;;;;;9.60;8.70;;;8.60;76.20;;;;;;6265227;28;20226;-77
2023/05/06 02:55:30;;;;;;;9.73;8.83;;;8.60;76.20;;;;;;6267602;28;20231;-78
2023/05/06 02:58:33;;;;;;;9.20;8.30;;;8.60;76.30;;;;;;6267346;28;20231;-78
2023/05/06 03:01:36;;;;;;;17.97;8.90;;;8.60;76.10;;;;;;6253951;28;20644;-82
2023/05/06 03:04:40;;;;;;;9.17;8.27;;;8.60;76.00;;;;;;6230999;28;20239;-80
2023/05/06 03:07:43;;;;;;;8.70;8.00;;;8.50;76.20;;;;;;6250704;28;20276;-81
2023/05/06 03:10:49;;;;;;;9.50;8.60;;;8.50;76.60;;;;;;6240898;28;20308;-78
2023/05/06 03:13:52;;;;;;;10.87;8.67;;;8.50;76.40;;;;;;6232212;28;20230;-81
2023/05/06 03:16:55;;;;;;;11.10;8.60;;;8.50;76.20;;;;;;6246869;28;20729;-80
2023/05/06 03:19:58;;;;;;;8.43;7.70;;;8.50;76.00;;;;;;6225362;28;20239;-82
2023/05/06 03:23:01;;;;;;;9.43;8.30;;;8.50;76.00;;;;;;6239436;28;20262;-84
2023/05/06 03:26:05;;;;;;;9.77;8.80;;;8.40;76.30;;;;;;6265718;28;20242;-81
2023/05/06 03:29:08;;;;;;;9.77;8.83;;;8.40;76.50;;;;;;6220270;28;20255;-80
2023/05/06 03:32:12;;;;;;;9.93;9.10;;;8.30;76.50;;;;;;6238802;28;20260;-81
2023/05/06 03:35:15;;;;;;;10.07;9.20;;;8.30;76.60;;;;;;6222155;28;20235;-82
2023/05/06 03:38:18;;;;;;;11.80;9.20;;;8.20;76.60;;;;;;6237031;28;20922;-82
2023/05/06 03:41:24;;;;;;;10.03;9.03;;;8.30;76.80;;;;;;6226473;28;20231;-82
2023/05/06 03:44:27;;;;;;;9.90;8.90;;;8.30;76.50;;;;;;6223745;28;20231;-80
2023/05/06 03:47:30;;;;;;;10.37;9.47;;;8.30;76.40;;;;;;6237457;28;20245;-80
2023/05/06 03:50:34;;;;;;;10.30;8.87;;;8.20;76.00;;;;;;6233928;28;20313;-81
2023/05/06 03:53:37;;;;;;;9.60;8.80;;;8.20;76.10;;;;;;6234960;28;20246;-82
2023/05/06 03:56:41;;;;;;;9.77;9.03;;;8.10;76.70;;;;;;6231627;28;20230;-82
2023/05/06 03:59:44;;;;;;;10.70;8.93;;;8.10;76.60;;;;;;6239113;28;20321;-83
2023/05/06 04:02:47;;;;;;;9.47;8.67;;;8.10;76.50;;;;;;6239825;28;20240;-82
2023/05/06 04:05:50;;;;;;;9.23;8.43;;;8.10;76.50;;;;;;6236832;28;20281;-84
2023/05/06 04:08:53;;;;;;;10.73;9.73;;;8.00;76.50;;;;;;6244228;28;20273;-84
2023/05/06 04:11:58;;;;;;;11.00;9.90;;;8.00;76.50;;;;;;6241370;28;20253;-81
2023/05/06 04:15:01;;;;;;;10.13;9.30;;;8.00;76.90;;;;;;6237911;28;20257;-81
2023/05/06 04:18:06;;;;;;;9.30;8.57;;;8.00;76.60;;;;;;6242154;28;20718;-80
2023/05/06 04:21:10;;;;;;;10.47;9.47;;;8.00;76.50;;;;;;6234047;28;20246;-81
2023/05/06 04:24:14;;;;;;;11.30;10.17;;;7.90;76.50;;;;;;6233112;28;20231;-83
2023/05/06 04:27:19;;;;;;;14.17;9.70;;;8.00;76.70;;;;;;6241681;28;20231;-80
2023/05/06 04:30:22;;;;;;;10.43;9.40;;;7.90;76.80;;;;;;6243727;28;20249;-82
2023/05/06 04:33:26;;;;;;;12.00;10.20;;;8.00;76.80;;;;;;6231128;28;20241;-82
2023/05/06 04:36:29;;;;;;;10.63;9.73;;;8.00;76.80;;;;;;6240527;28;21027;-82
2023/05/06 04:39:33;;;;;;;9.90;9.00;;;8.00;76.70;;;;;;6256856;28;20298;-82
2023/05/06 04:42:38;;;;;;;10.27;9.27;;;8.10;76.50;;;;;;6246922;28;20230;-82
2023/05/06 04:45:48;;;;;;;9.67;8.77;;;8.10;76.50;;;;;;6222289;28;20235;-80
2023/05/06 04:48:51;;;;;;;10.53;9.50;;;8.10;76.60;;;;;;6199709;28;20247;-79
2023/05/06 04:51:55;;;;;;;9.13;8.43;;;8.10;76.50;;;;;;6233267;28;20251;-79
2023/05/06 04:54:58;;;;;;;10.87;9.77;;;8.10;76.40;;;;;;6224000;28;20234;-80
2023/05/06 04:58:02;;;;;;;9.97;9.00;;;8.10;76.10;;;;;;6209762;28;20727;-81
2023/05/06 05:01:08;;;;;;;10.10;9.07;;;8.10;75.50;;;;;;6217692;28;20243;-80
2023/05/06 05:04:12;;;;;;;9.50;8.70;;;8.10;75.80;;;;;;6216557;28;20749;-81
2023/05/06 05:07:15;;;;;;;10.13;8.90;;;8.10;75.40;;;;;;6205801;28;20231;-81
2023/05/06 05:10:18;;;;;;;11.37;9.53;;;8.10;75.70;;;;;;6230144;28;20246;-80
2023/05/06 05:13:22;;;;;;;10.83;9.20;;;8.20;75.70;;;;;;6220626;28;20231;-79
2023/05/06 05:16:26;;;;;;;9.70;8.80;;;8.20;75.50;;;;;;6209070;28;20638;-80
2023/05/06 05:19:30;;;;;;;9.10;8.37;;;8.20;75.40;;;;;;6206271;28;20653;-79
2023/05/06 05:22:35;;;;;;;10.70;9.60;;;8.20;75.40;;;;;;6235544;28;20245;-81
2023/05/06 05:25:38;;;;;;;10.20;9.20;;;8.20;75.20;;;;;;6249081;28;20239;-81
2023/05/06 05:28:43;;;;;;;10.60;9.70;;;8.20;75.40;;;;;;6236514;28;20774;-81
2023/05/06 05:31:46;;;;;;;10.07;9.03;;;8.10;75.30;;;;;;6226501;28;20291;-84
2023/05/06 05:34:49;;;;;;;10.47;9.40;;;8.10;75.70;;;;;;6241443;28;20227;-79
2023/05/06 05:37:52;;;;;;;10.30;9.00;;;8.20;75.80;;;;;;6227504;28;20238;-81
2023/05/06 05:40:55;;;;;;;9.83;9.03;;;8.20;75.70;;;;;;6239924;28;20242;-80
2023/05/06 05:44:00;;;;;;;9.60;8.87;;;8.30;75.40;;;;;;6255147;28;20238;-83
2023/05/06 05:47:04;;;;;;;10.67;9.57;;;8.30;75.20;;;;;;6234097;28;20382;-79
2023/05/06 05:50:08;;;;;;;9.37;8.67;;;8.30;75.20;;;;;;6234611;28;20239;-81
2023/05/06 05:53:11;;;;;;;9.53;8.53;;;8.30;75.30;;;;;;6232772;28;20236;-81
2023/05/06 05:56:14;;;;;;;10.23;8.80;;;8.30;75.30;;;;;;6227462;28;20325;-76
2023/05/06 05:59:19;;;;;;;9.83;9.00;;;8.40;75.40;;;;;;6233815;28;20231;-81
2023/05/06 06:02:22;;;;;;;9.37;8.47;;;8.40;75.30;;;;;;6236565;28;20314;-81
2023/05/06 06:05:25;;;;;;;9.53;8.70;;;8.50;74.80;;;;;;6226885;28;20712;-79
2023/05/06 06:08:31;;;;;;;9.83;8.97;;;8.50;75.00;;;;;;6214156;28;20738;-82
2023/05/06 06:11:34;;;;;;;9.47;8.53;;;8.50;74.60;;;;;;6198276;28;20242;-81
2023/05/06 06:14:38;;;;;;;10.77;9.47;;;8.50;74.70;;;;;;6202983;28;20234;-81
2023/05/06 06:17:42;;;;;;;9.87;9.03;;;8.60;74.50;;;;;;6207911;28;20282;-80
2023/05/06 06:20:45;;;;;;;10.23;9.23;;;8.60;74.60;;;;;;6205542;28;20324;-80
2023/05/06 06:23:48;;;;;;;10.93;9.33;;;8.60;74.20;;;;;;6208368;28;20711;-80
2023/05/06 06:26:51;;;;;;;9.70;8.80;;;8.60;74.30;;;;;;6209277;28;20234;-80
2023/05/06 06:29:56;;;;;;;12.30;8.87;;;8.60;74.10;;;;;;6209239;28;20235;-83
2023/05/06 06:33:00;;;;;;;9.77;8.97;;;8.60;73.60;;;;;;6231317;28;20766;-80
2023/05/06 06:36:04;;;;;;;9.27;8.57;;;8.60;73.60;;;;;;6232357;28;20326;-81
2023/05/06 06:39:07;;;;;;;9.43;8.73;;;8.60;73.60;;;;;;6238034;28;20853;-79
2023/05/06 06:42:10;;;;;;;9.87;8.67;;;8.60;73.20;;;;;;6237619;28;20245;-80
2023/05/06 06:45:15;;;;;;;10.40;9.47;;;8.60;73.30;;;;;;6232620;28;20633;-80
2023/05/06 06:48:18;;;;;;;9.00;8.13;;;8.60;72.90;;;;;;6236942;28;20308;-80
2023/05/06 06:51:21;;;;;;;9.70;8.87;;;8.60;73.00;;;;;;6236215;28;20246;-80
2023/05/06 06:54:24;;;;;;;10.60;9.20;;;8.50;73.30;;;;;;6237454;28;20245;-80
2023/05/06 06:57:27;;;;;;;9.17;8.47;;;8.50;73.60;;;;;;6245294;28;20238;-82
2023/05/06 07:00:32;;;;;;;12.30;10.10;;;8.50;74.00;;;;;;6257454;28;20231;-81
2023/05/06 07:03:35;;;;;;;9.37;8.53;;;8.50;73.80;;;;;;6225898;28;20241;-81
2023/05/06 07:06:40;;;;;;;10.80;9.70;;;8.60;73.40;;;;;;6248883;28;20241;-82
2023/05/06 07:09:43;;;;;;;10.83;9.83;;;8.50;73.50;;;;;;6249495;28;20659;-81
2023/05/06 07:12:47;;;;;;;10.50;9.47;;;8.50;73.90;;;;;;6241734;28;20237;-82
2023/05/06 07:15:52;;;;;;;10.27;9.40;;;8.50;73.20;;;;;;6228379;28;20230;-80
2023/05/06 07:18:55;;;;;;;9.40;8.60;;;8.50;73.50;;;;;;6245950;28;20861;-79
2023/05/06 07:21:58;;;;;;;10.60;9.80;;;8.50;73.60;;;;;;6221834;28;20238;-80
2023/05/06 07:25:01;;;;;;;10.20;9.23;;;8.50;74.00;;;;;;6244742;28;20649;-81
2023/05/06 07:28:04;;;;;;;10.27;9.20;;;8.50;73.50;;;;;;6234482;28;20239;-80
2023/05/06 07:31:09;;;;;;;10.77;9.83;;;8.50;73.50;;;;;;6233633;28;20230;-78
2023/05/06 07:34:12;;;;;;;10.23;9.43;;;8.50;73.40;;;;;;6235390;28;20234;-81
2023/05/06 07:37:16;;;;;;;10.73;9.77;;;8.50;73.30;;;;;;6235061;28;20245;-82
2023/05/06 07:40:19;;;;;;;10.33;9.43;;;8.50;73.80;;;;;;6238401;28;20244;-79
2023/05/06 07:43:22;;;;;;;11.47;10.37;;;8.60;73.70;;;;;;6238298;28;20238;-80
2023/05/06 07:46:27;;;;;;;11.83;10.73;;;8.60;73.60;;;;;;6235864;28;20241;-80
2023/05/06 07:49:32;;;;;;;11.70;10.70;;;8.60;73.40;;;;;;6237506;28;20242;-78
2023/05/06 07:52:35;;;;;;;10.87;9.97;;;8.60;73.40;;;;;;6241054;28;20622;-82
2023/05/06 07:55:38;;;;;;;11.13;10.23;;;8.60;73.60;;;;;;6232677;28;20276;-81
2023/05/06 07:58:41;;;;;;;11.20;10.30;;;8.60;74.00;;;;;;6249829;28;20242;-83
2023/05/06 08:01:46;;;;;;;11.37;10.47;;;8.60;74.20;;;;;;6227353;28;20254;-82
2023/05/06 08:04:49;;;;;;;10.67;9.77;;;8.60;74.50;;;;;;6228226;28;20230;-81
2023/05/06 08:07:54;;;;;;;11.37;10.47;;;8.60;75.00;;;;;;6231912;28;20234;-81
2023/05/06 08:10:58;;;;;;;12.23;11.03;;;8.70;74.50;;;;;;6234490;28;20285;-80
2023/05/06 08:14:02;;;;;;;11.40;10.50;;;8.60;74.60;;;;;;6232528;28;20239;-80
2023/05/06 08:17:06;;;;;;;10.73;9.83;;;8.70;74.40;;;;;;6229389;28;20249;-80
2023/05/06 08:20:10;;;;;;;11.77;10.77;;;8.70;74.50;;;;;;6233481;28;20805;-81
2023/05/06 08:23:13;;;;;;;12.67;11.60;;;8.70;74.70;;;;;;6234919;28;20734;-80
2023/05/06 08:26:16;;;;;;;12.37;11.37;;;8.70;75.00;;;;;;6236664;28;20867;-80
2023/05/06 08:29:20;;;;;;;12.93;11.73;;;8.70;75.20;;;;;;6236762;28;20238;-82
2023/05/06 08:32:24;;;;;;;13.30;11.93;;;8.60;75.60;;;;;;6236074;28;20261;-80
2023/05/06 08:35:27;;;;;;;13.07;11.87;;;8.70;75.70;;;;;;6230970;28;20587;-79
2023/05/06 08:38:30;;;;;;;13.13;11.93;;;8.70;75.80;;;;;;6236156;28;20226;-80
2023/05/06 08:41:37;;;;;;;12.10;11.00;;;8.80;75.80;;;;;;6230740;28;20663;-80
2023/05/06 08:44:43;;;;;;;12.57;11.50;;;8.80;75.80;;;;;;6235487;28;20235;-80
2023/05/06 08:47:47;;;;;;;12.90;11.80;;;8.90;75.70;;;;;;6238724;28;20226;-80
2023/05/06 08:50:51;;;;;;;12.20;11.23;;;8.80;75.70;;;;;;6244392;28;20226;-79
2023/05/06 08:53:55;;;;;;;12.93;11.80;;;8.70;75.80;;;;;;6242302;28;20241;-80
2023/05/06 08:57:02;;;;;;;13.23;12.17;;;8.70;76.30;;;;;;6220977;28;20628;-82
2023/05/06 09:00:09;;;;;;;14.20;12.93;;;8.70;76.60;;;;;;6226787;28;20227;-80
2023/05/06 09:03:14;;;;;;;13.20;12.00;;;8.80;76.70;;;;;;6212853;28;20626;-79
2023/05/06 09:06:18;;;;;;;12.73;11.73;;;8.70;76.70;;;;;;6212301;28;20239;-79
2023/05/06 09:09:21;;;;;;;12.33;11.17;;;8.80;76.80;;;;;;6201621;28;20236;-81
2023/05/06 09:12:24;;;;;;;12.03;11.13;;;8.80;76.80;;;;;;6215410;28;20243;-79
2023/05/06 09:15:38;;;;;;;11.57;10.67;;;8.90;76.70;;;;;;6220274;28;20249;-80
2023/05/06 09:18:43;;;;;;;12.63;11.63;;;8.90;76.80;;;;;;6248281;28;20235;-79
2023/05/06 09:21:47;;;;;;;12.30;11.30;;;9.00;76.50;;;;;;6237190;28;20237;-81
2023/05/06 09:24:55;;;;;;;11.70;10.80;;;9.20;76.50;;;;;;6259664;28;20226;-78
2023/05/06 09:28:04;;;;;;;10.83;10.03;;;9.10;76.20;;;;;;6228814;28;20300;-78
2023/05/06 09:31:07;;;;;;;10.50;9.70;;;9.20;76.10;;;;;;6239481;28;20239;-80
2023/05/06 09:34:12;;;;;;;11.40;10.47;;;9.20;75.50;;;;;;6239122;28;21217;-78
2023/05/06 09:37:15;;;;;;;12.37;11.17;;;9.20;75.70;;;;;;6243507;28;20235;-79
2023/05/06 09:40:18;;;;;;;11.30;10.40;;;9.20;75.70;;;;;;6233985;28;20234;-79
2023/05/06 09:43:21;;;;;;;10.87;10.07;;;9.30;75.70;;;;;;6233914;28;20249;-78
2023/05/06 09:46:26;;;;;;;10.50;9.77;;;9.30;75.50;;;;;;6236108;28;20234;-80
2023/05/06 09:49:31;;;;;;;10.77;9.97;;;9.30;75.50;;;;;;6237344;28;20818;-77
2023/05/06 09:52:35;;;;;;;10.27;9.60;;;9.40;75.40;;;;;;6223862;28;20230;-79
2023/05/06 09:55:41;;;;;;;9.40;8.70;;;9.40;75.20;;;;;;6239463;28;20888;-79
2023/05/06 09:58:47;;;;;;;9.63;8.83;;;9.50;74.90;;;;;;6228717;28;20242;-78
2023/05/06 10:01:51;;;;;;;10.83;9.93;;;9.50;74.60;;;;;;6255363;28;20231;-81
2023/05/06 10:04:59;;;;;;;9.40;8.60;;;9.50;74.80;;;;;;6241188;28;20240;-81
2023/05/06 10:08:03;;;;;;;9.00;8.40;;;9.60;74.90;;;;;;6237564;28;20758;-79
2023/05/06 10:11:09;;;;;;;8.37;7.93;;;9.60;74.90;;;;;;6215775;28;20738;-79
2023/05/06 10:14:12;;;;;;;9.23;8.53;;;9.70;74.30;;;;;;6241487;28;20753;-81
2023/05/06 10:17:19;;;;;;;8.80;8.23;;;9.70;74.00;;;;;;6216546;28;20247;-80
2023/05/06 10:20:24;;;;;;;9.53;8.83;;;9.80;73.70;;;;;;6210866;28;20243;-80
2023/05/06 10:23:34;;;;;;;9.53;8.83;;;9.70;73.90;;;;;;6206192;28;20323;-80
2023/05/06 10:26:38;;;;;;;9.67;8.70;;;9.70;73.90;;;;;;6211885;28;20237;-80
2023/05/06 10:29:43;;;;;;;8.93;8.33;;;9.60;73.70;;;;;;6206083;28;20243;-79
2023/05/06 10:32:47;;;;;;;9.80;9.20;;;9.60;73.90;;;;;;6212183;28;20635;-80
2023/05/06 10:35:56;;;;;;;10.47;9.77;;;9.50;74.20;;;;;;6209167;28;20350;-78
2023/05/06 10:39:02;;;;;;;9.40;8.90;;;9.60;73.90;;;;;;6218537;28;20235;-80
2023/05/06 10:42:05;;;;;;;10.00;9.20;;;9.60;73.90;;;;;;6212344;28;20235;-81
2023/05/06 10:45:09;;;;;;;8.60;8.10;;;9.70;73.80;;;;;;6207389;28;20288;-81
2023/05/06 10:48:16;;;;;;;9.43;8.63;;;9.80;73.00;;;;;;6209285;28;20244;-81
2023/05/06 10:51:25;;;;;;;9.27;8.63;;;9.70;73.10;;;;;;6211525;28;20246;-81
2023/05/06 10:54:29;;;;;;;9.70;8.80;;;9.60;73.10;;;;;;6215118;28;20239;-80
2023/05/06 10:57:41;;;;;;;8.27;7.83;;;9.60;73.20;;;;;;6210412;28;20729;-78
2023/05/06 11:00:53;;;;;;;9.43;8.73;;;9.60;73.10;;;;;;6222749;28;20238;-82
2023/05/06 11:03:57;;;;;;;8.13;7.63;;;9.50;73.40;;;;;;6218261;28;20228;-79
2023/05/06 11:07:10;;;;;;;9.20;8.60;;;9.50;73.40;;;;;;6206285;28;20232;-82
2023/05/06 11:10:14;;;;;;;9.30;8.40;;;9.50;73.60;;;;;;6199780;28;20349;-80
2023/05/06 11:13:22;;;;;;;7.63;7.20;;;9.50;73.40;;;;;;6207124;28;20596;-80
2023/05/06 11:16:48;;;;;;;7.43;7.03;;;9.50;73.00;;;;;;6207165;28;20239;-80
2023/05/06 11:20:21;;;;;;;7.50;7.17;;;9.50;72.90;;;;;;6214478;28;20883;-80
2023/05/06 11:24:04;;;;;;;8.10;7.60;;;9.50;73.30;;;;;;6204849;28;20313;-79
2023/05/06 11:27:08;;;;;;;6.03;5.73;;;9.50;73.20;;;;;;6204223;28;20238;-79
2023/05/06 11:30:14;;;;;;;6.83;6.33;;;9.40;72.90;;;;;;6210688;28;20231;-80
2023/05/06 11:33:19;;;;;;;7.07;6.60;;;9.40;72.80;;;;;;6223367;28;20731;-82
2023/05/06 11:36:22;;;;;;;6.27;6.07;;;9.40;72.90;;;;;;6217464;28;20241;-80
2023/05/06 11:39:29;;;;;;;6.43;5.90;;;9.40;73.00;;;;;;6208943;28;20231;-81
2023/05/06 11:42:34;;;;;;;5.73;5.53;;;9.30;73.50;;;;;;6210811;28;20904;-81
2023/05/06 11:45:41;;;;;;;5.47;5.37;;;9.40;73.00;;;;;;6209666;28;20247;-80
2023/05/06 11:48:44;;;;;;;5.93;5.63;;;9.40;73.20;;;;;;6212790;28;20733;-80
2023/05/06 11:51:48;;;;;;;6.37;5.87;;;9.50;73.00;;;;;;6218462;28;20250;-80
2023/05/06 11:54:53;;;;;;;6.20;5.97;;;9.40;72.50;;;;;;6235225;28;21742;-78
2023/05/06 11:57:56;;;;;;;6.13;5.87;;;9.40;72.80;;;;;;6239828;28;20230;-82
2023/05/06 12:01:00;;;;;;;6.10;5.70;;;9.50;73.00;;;;;;6236147;28;20238;-79
2023/05/06 12:04:03;;;;;;;7.03;6.73;;;9.40;73.00;;;;;;6229045;28;20246;-77
2023/05/06 12:07:08;;;;;;;6.40;5.90;;;9.40;73.00;;;;;;6233277;28;20268;-79
2023/05/06 12:10:15;;;;;;;6.17;5.77;;;9.50;72.50;;;;;;6226839;28;20238;-78
2023/05/06 12:13:19;;;;;;;6.53;6.13;;;9.50;72.30;;;;;;6236356;28;20230;-80
2023/05/06 12:16:24;;;;;;;6.23;5.77;;;9.40;72.40;;;;;;6226286;28;20242;-81
2023/05/06 12:19:29;;;;;;;6.40;6.03;;;9.40;72.70;;;;;;6234184;28;20237;-81
2023/05/06 12:22:32;;;;;;;5.57;5.37;;;9.40;72.70;;;;;;6236850;28;20231;-80
2023/05/06 12:25:37;;;;;;;5.93;5.47;;;9.40;72.40;;;;;;6233800;28;20248;-80
2023/05/06 12:28:41;;;;;;;6.00;5.70;;;9.30;72.50;;;;;;6211429;28;20246;-81
2023/05/06 12:31:46;;;;;;;5.90;5.70;;;9.40;72.50;;;;;;6207057;28;20258;-83
2023/05/06 12:34:49;;;;;;;6.07;5.77;;;9.40;72.10;;;;;;6213211;28;20853;-82
2023/05/06 12:37:53;;;;;;;5.23;5.07;;;9.40;72.00;;;;;;6210846;28;20239;-82
2023/05/06 12:40:57;;;;;;;5.97;5.77;;;9.50;71.80;;;;;;6225946;28;20261;-80
2023/05/06 12:44:00;;;;;;;5.97;5.57;;;9.60;71.70;;;;;;6218265;28;20231;-80
2023/05/06 12:47:06;;;;;;;8.20;5.50;;;9.50;72.10;;;;;;6239635;28;20245;-81
2023/05/06 12:50:09;;;;;;;5.47;5.27;;;9.50;71.80;;;;;;6232265;28;20232;-78
2023/05/06 12:53:13;;;;;;;5.80;5.50;;;9.40;71.70;;;;;;6219351;28;20237;-82
2023/05/06 12:56:19;;;;;;;5.57;5.27;;;9.40;72.20;;;;;;6207288;28;20250;-80
2023/05/06 12:59:25;;;;;;;5.40;5.10;;;9.40;71.60;;;;;;6237948;28;20246;-81
2023/05/06 13:02:27;;;;;;;5.13;4.93;;;9.50;71.80;;;;;;6236775;28;20238;-79
2023/05/06 13:05:31;;;;;;;5.37;5.17;;;9.50;72.00;;;;;;6244383;28;20254;-80
2023/05/06 13:08:34;;;;;;;5.33;4.93;;;9.50;72.20;;;;;;6245835;28;20245;-79
2023/05/06 13:11:38;;;;;;;5.80;5.50;;;9.60;72.00;;;;;;6238636;28;20588;-80
2023/05/06 13:14:41;;;;;;;5.30;5.10;;;9.50;71.80;;;;;;6233923;28;20242;-80
2023/05/06 13:17:44;;;;;;;5.50;5.20;;;9.50;72.10;;;;;;6231016;28;20370;-81
2023/05/06 13:20:48;;;;;;;5.67;5.27;;;9.60;71.90;;;;;;6242060;28;20246;-80
2023/05/06 13:23:51;;;;;;;4.93;4.73;;;9.50;71.80;;;;;;6241611;28;20253;-79
2023/05/06 13:26:56;;;;;;;4.80;4.63;;;9.50;71.30;;;;;;6232857;28;20609;-79
2023/05/06 13:29:59;;;;;;;4.83;4.67;;;9.60;71.20;;;;;;6239342;28;20293;-82
2023/05/06 13:33:02;;;;;;;5.03;4.73;;;9.60;71.60;;;;;;6240951;28;20230;-80
2023/05/06 13:36:06;;;;;;;5.17;4.90;;;9.70;71.20;;;;;;6243261;28;20277;-79
2023/05/06 13:39:09;;;;;;;5.20;5.00;;;9.70;70.70;;;;;;6234226;28;20243;-79
2023/05/06 13:42:14;;;;;;;4.70;4.60;;;9.60;71.20;;;;;;6213510;28;20726;-80
2023/05/06 13:45:16;;;;;;;5.27;5.07;;;9.70;71.30;;;;;;6201710;28;20405;-79
2023/05/06 13:48:20;;;;;;;4.83;4.67;;;9.70;71.50;;;;;;6217748;28;20295;-79
2023/05/06 13:51:23;;;;;;;4.80;4.60;;;9.70;71.40;;;;;;6209764;28;20243;-81
2023/05/06 13:54:26;;;;;;;4.57;4.27;;;9.60;71.20;;;;;;6220221;28;20250;-78
2023/05/06 13:57:30;;;;;;;4.77;4.50;;;9.60;71.80;;;;;;6243576;28;20239;-81
2023/05/06 14:00:34;;;;;;;5.43;5.03;;;9.60;71.80;;;;;;6243258;28;20731;-81
2023/05/06 14:03:37;;;;;;;5.73;5.33;;;9.60;71.90;;;;;;6233973;28;20248;-80
2023/05/06 14:06:40;;;;;;;6.33;5.80;;;9.60;71.90;;;;;;6235940;28;20618;-79
2023/05/06 14:09:45;;;;;;;5.67;5.33;;;9.60;72.30;;;;;;6222223;28;20240;-79
2023/05/06 14:12:50;;;;;;;5.60;5.40;;;9.50;72.60;;;;;;6208188;28;20236;-81
2023/05/06 14:15:54;;;;;;;5.73;5.43;;;9.60;72.80;;;;;;6214885;28;20253;-79
2023/05/06 14:18:58;;;;;;;5.00;4.90;;;9.60;72.90;;;;;;6201197;28;20236;-80
2023/05/06 14:22:01;;;;;;;4.90;4.80;;;9.70;72.20;;;;;;6206122;28;20253;-80
2023/05/06 14:25:04;;;;;;;5.20;4.83;;;9.70;72.10;;;;;;6206432;28;20243;-82
2023/05/06 14:28:09;;;;;;;5.17;4.90;;;9.70;72.10;;;;;;6211150;28;20261;-79
2023/05/06 14:31:12;;;;;;;4.50;4.40;;;9.70;71.90;;;;;;6214146;28;20239;-80
2023/05/06 14:34:15;;;;;;;4.70;4.40;;;9.60;71.80;;;;;;6220169;28;20276;-80
2023/05/06 14:37:18;;;;;;;4.63;4.53;;;9.60;71.50;;;;;;6233754;28;20317;-80
2023/05/06 14:40:21;;;;;;;5.63;5.33;;;9.40;72.30;;;;;;6234884;28;20414;-81
2023/05/06 14:43:26;;;;;;;5.00;4.90;;;9.50;72.10;;;;;;6231990;28;20634;-78
2023/05/06 14:46:29;;;;;;;4.57;4.37;;;9.50;72.00;;;;;;6231817;28;20258;-80
2023/05/06 14:49:32;;;;;;;4.47;4.33;;;9.50;71.90;;;;;;6221305;28;20238;-83
2023/05/06 14:52:37;;;;;;;4.70;4.57;;;9.50;71.70;;;;;;6210515;28;20258;-80
2023/05/06 14:55:41;;;;;;;4.37;4.00;;;9.40;71.70;;;;;;6218899;28;20758;-80
2023/05/06 14:58:45;;;;;;;4.20;4.10;;;9.40;72.20;;;;;;6214297;28;20762;-78
2023/05/06 15:01:48;;;;;;;4.17;4.07;;;9.40;72.20;;;;;;6212541;28;20232;-79
2023/05/06 15:04:52;;;;;;;4.40;4.10;;;9.40;71.90;;;;;;6230642;28;20364;-80
2023/05/06 15:07:55;;;;;;;4.40;4.30;;;9.40;71.80;;;;;;6234089;28;20234;-78
2023/05/06 15:10:58;;;;;;;4.43;4.20;;;9.40;72.20;;;;;;6236299;28;20766;-80
2023/05/06 15:14:04;;;;;;;4.60;4.30;;;9.40;72.40;;;;;;6231221;28;20242;-81
2023/05/06 15:17:07;;;;;;;4.87;4.67;;;9.40;72.00;;;;;;6232527;28;20249;-80
2023/05/06 15:20:13;;;;;;;4.90;4.70;;;9.40;71.90;;;;;;6248460;28;20230;-80
2023/05/06 15:23:16;;;;;;;4.87;4.70;;;9.40;71.90;;;;;;6232404;28;20310;-80
2023/05/06 15:26:20;;;;;;;4.83;4.73;;;9.40;71.80;;;;;;6269386;28;20242;-76
2023/05/06 15:29:25;;;;;;;5.87;4.93;;;9.30;71.90;;;;;;6269903;28;20233;-79
2023/05/06 15:32:27;;;;;;;5.17;5.00;;;9.20;72.30;;;;;;6281915;28;20234;-78
2023/05/06 15:35:31;;;;;;;5.10;5.00;;;9.20;72.30;;;;;;6267374;28;20239;-80
2023/05/06 15:38:57;;;;;;;8.07;7.50;;;9.20;72.90;;;;;;6269043;28;20234;-79
2023/05/06 15:42:03;;;;;;;7.80;7.13;;;9.20;72.70;;;;;;6260240;28;20235;-77
2023/05/06 15:45:08;;;;;;;5.77;5.57;;;9.20;72.50;;;;;;6267779;28;20264;-78
2023/05/06 15:48:11;;;;;;;5.00;4.90;;;9.30;72.40;;;;;;6265842;28;20226;-78
2023/05/06 15:51:14;;;;;;;5.20;4.80;;;9.40;72.10;;;;;;6266943;28;20215;-77
2023/05/06 15:54:18;;;;;;;5.00;4.90;;;9.40;72.10;;;;;;6231430;28;20234;-80
2023/05/06 15:57:21;;;;;;;5.23;4.93;;;9.40;72.00;;;;;;6206014;28;20231;-81
2023/05/06 16:00:27;;;;;;;5.50;5.20;;;9.40;71.70;;;;;;6217278;28;20651;-79
2023/05/06 16:03:30;;;;;;;6.07;5.77;;;9.40;71.70;;;;;;6228847;28;20246;-79